sensor_id;sensor_type;location;lat;lon;timestamp;pressure;altitude;pressure_sealevel;temperature;humidity
47054;BME280;32811;52.382;5.270;2023-07-31T00:01:31;100973.78;;;15.16;100.00
47054;BME280;32811;52.382;5.270;2023-07-31T00:03:58;100966.81;;;15.17;100.00
47054;BME280;32811;52.382;5.270;2023-07-31T00:06:25;100962.47;;;15.17;100.00
47054;BME280;32811;52.382;5.270;2023-07-31T00:08:52;100956.34;;;15.21;100.00
47054;BME280;32811;52.382;5.270;2023-07-31T00:11:18;100958.06;;;15.24;100.00
47054;BME280;32811;52.382;5.270;2023-07-31T00:13:45;100962.28;;;15.32;100.00
47054;BME280;32811;52.382;5.270;2023-07-31T00:16:11;100950.13;;;15.33;100.00
47054;BME280;32811;52.382;5.270;2023-07-31T00:18:38;100950.00;;;15.44;100.00
47054;BME280;32811;52.382;5.270;2023-07-31T00:21:05;100952.44;;;15.54;100.00
47054;BME280;32811;52.382;5.270;2023-07-31T00:23:31;100952.44;;;15.54;100.00
47054;BME280;32811;52.382;5.270;2023-07-31T00:25:58;100953.22;;;15.60;100.00
47054;BME280;32811;52.382;5.270;2023-07-31T00:28:25;100949.63;;;15.70;100.00
47054;BME280;32811;52.382;5.270;2023-07-31T00:30:51;100953.03;;;15.76;100.00
47054;BME280;32811;52.382;5.270;2023-07-31T00:33:18;100952.97;;;15.78;100.00
47054;BME280;32811;52.382;5.270;2023-07-31T00:35:45;100952.09;;;15.79;100.00
47054;BME280;32811;52.382;5.270;2023-07-31T00:38:11;100943.31;;;15.86;100.00
47054;BME280;32811;52.382;5.270;2023-07-31T00:40:38;100939.88;;;15.84;100.00
47054;BME280;32811;52.382;5.270;2023-07-31T00:43:05;100954.56;;;15.90;100.00
47054;BME280;32811;52.382;5.270;2023-07-31T00:45:32;100959.72;;;15.91;100.00
47054;BME280;32811;52.382;5.270;2023-07-31T00:47:59;100932.16;;;15.78;100.00
47054;BME280;32811;52.382;5.270;2023-07-31T00:50:26;100958.78;;;15.95;100.00
47054;BME280;32811;52.382;5.270;2023-07-31T00:52:54;100948.38;;;15.95;100.00
47054;BME280;32811;52.382;5.270;2023-07-31T00:55:21;100948.44;;;15.92;100.00
47054;BME280;32811;52.382;5.270;2023-07-31T00:57:48;100932.00;;;15.89;100.00
47054;BME280;32811;52.382;5.270;2023-07-31T01:00:16;100935.31;;;15.98;100.00
47054;BME280;32811;52.382;5.270;2023-07-31T01:02:43;100940.47;;;16.00;100.00
47054;BME280;32811;52.382;5.270;2023-07-31T01:05:10;100936.19;;;15.97;100.00
47054;BME280;32811;52.382;5.270;2023-07-31T01:10:26;100943.97;;;15.99;100.00
47054;BME280;32811;52.382;5.270;2023-07-31T01:12:56;100923.16;;;15.97;100.00
47054;BME280;32811;52.382;5.270;2023-07-31T01:15:24;100941.31;;;16.04;100.00
47054;BME280;32811;52.382;5.270;2023-07-31T01:17:50;100934.44;;;16.00;100.00
47054;BME280;32811;52.382;5.270;2023-07-31T01:20:21;100936.97;;;16.03;100.00
47054;BME280;32811;52.382;5.270;2023-07-31T01:28:06;100916.88;;;16.09;100.00
47054;BME280;32811;52.382;5.270;2023-07-31T01:30:37;100936.88;;;16.09;100.00
47054;BME280;32811;52.382;5.270;2023-07-31T01:33:07;100932.56;;;16.06;100.00
47054;BME280;32811;52.382;5.270;2023-07-31T01:35:36;100930.00;;;16.05;100.00
47054;BME280;32811;52.382;5.270;2023-07-31T01:38:04;100919.53;;;16.08;100.00
47054;BME280;32811;52.382;5.270;2023-07-31T01:40:31;100931.66;;;16.10;100.00
47054;BME280;32811;52.382;5.270;2023-07-31T01:42:58;100928.22;;;16.08;100.00
47054;BME280;32811;52.382;5.270;2023-07-31T01:45:24;100927.34;;;16.08;100.00
47054;BME280;32811;52.382;5.270;2023-07-31T01:47:51;100933.44;;;16.05;100.00
47054;BME280;32811;52.382;5.270;2023-07-31T01:50:18;100897.22;;;15.91;100.00
47054;BME280;32811;52.382;5.270;2023-07-31T01:52:44;100918.78;;;16.01;100.00
47054;BME280;32811;52.382;5.270;2023-07-31T01:55:11;100899.75;;;15.97;100.00
47054;BME280;32811;52.382;5.270;2023-07-31T01:57:38;100910.00;;;16.07;100.00
47054;BME280;32811;52.382;5.270;2023-07-31T02:00:05;100905.72;;;16.03;100.00
47054;BME280;32811;52.382;5.270;2023-07-31T02:02:31;100902.25;;;16.02;100.00
47054;BME280;32811;52.382;5.270;2023-07-31T02:04:58;100885.84;;;15.98;100.00
47054;BME280;32811;52.382;5.270;2023-07-31T02:07:25;100895.38;;;16.00;100.00
47054;BME280;32811;52.382;5.270;2023-07-31T02:09:51;100891.94;;;15.97;100.00
47054;BME280;32811;52.382;5.270;2023-07-31T02:12:18;100881.53;;;15.97;100.00
47054;BME280;32811;52.382;5.270;2023-07-31T02:14:45;100884.94;;;16.01;100.00
47054;BME280;32811;52.382;5.270;2023-07-31T02:17:11;100852.16;;;15.89;100.00
47054;BME280;32811;52.382;5.270;2023-07-31T02:19:38;100859.84;;;15.95;100.00
47054;BME280;32811;52.382;5.270;2023-07-31T02:22:04;100875.41;;;16.00;100.00
47054;BME280;32811;52.382;5.270;2023-07-31T02:24:31;100866.66;;;16.03;100.00
47054;BME280;32811;52.382;5.270;2023-07-31T02:26:58;100844.31;;;15.91;100.00
47054;BME280;32811;52.382;5.270;2023-07-31T02:29:24;100867.66;;;15.97;100.00
47054;BME280;32811;52.382;5.270;2023-07-31T02:31:51;100857.41;;;15.88;100.00
47054;BME280;32811;52.382;5.270;2023-07-31T02:34:18;100857.16;;;16.00;100.00
47054;BME280;32811;52.382;5.270;2023-07-31T02:36:44;100867.50;;;16.05;100.00
47054;BME280;32811;52.382;5.270;2023-07-31T02:39:11;100867.56;;;16.03;100.00
47054;BME280;32811;52.382;5.270;2023-07-31T02:41:38;100859.81;;;15.98;100.00
47054;BME280;32811;52.382;5.270;2023-07-31T02:44:04;100854.66;;;15.95;100.00
47054;BME280;32811;52.382;5.270;2023-07-31T02:46:31;100868.41;;;16.04;100.00
47054;BME280;32811;52.382;5.270;2023-07-31T02:48:58;100856.31;;;16.00;100.00
47054;BME280;32811;52.382;5.270;2023-07-31T02:51:24;100856.38;;;15.96;100.00
47054;BME280;32811;52.382;5.270;2023-07-31T02:53:51;100855.47;;;15.99;100.00
47054;BME280;32811;52.382;5.270;2023-07-31T02:56:17;100848.59;;;15.93;100.00
47054;BME280;32811;52.382;5.270;2023-07-31T02:58:44;100859.00;;;15.96;100.00
47054;BME280;32811;52.382;5.270;2023-07-31T03:01:11;100850.25;;;15.99;100.00
47054;BME280;32811;52.382;5.270;2023-07-31T03:03:37;100856.34;;;15.98;100.00
47054;BME280;32811;52.382;5.270;2023-07-31T03:06:04;100849.47;;;15.94;100.00
47054;BME280;32811;52.382;5.270;2023-07-31T03:08:31;100839.97;;;15.91;100.00
47054;BME280;32811;52.382;5.270;2023-07-31T03:10:57;100852.97;;;15.93;100.00
47054;BME280;32811;52.382;5.270;2023-07-31T03:13:24;100839.03;;;15.95;100.00
47054;BME280;32811;52.382;5.270;2023-07-31T03:15:51;100850.28;;;15.96;100.00
47054;BME280;32811;52.382;5.270;2023-07-31T03:18:17;100849.50;;;15.92;100.00
47054;BME280;32811;52.382;5.270;2023-07-31T03:20:44;100854.72;;;15.92;100.00
47054;BME280;32811;52.382;5.270;2023-07-31T03:23:11;100856.56;;;15.86;100.00
47054;BME280;32811;52.382;5.270;2023-07-31T03:25:37;100845.25;;;15.88;100.00
47054;BME280;32811;52.382;5.270;2023-07-31T03:28:04;100851.28;;;15.89;100.00
47054;BME280;32811;52.382;5.270;2023-07-31T03:30:30;100847.84;;;15.87;100.00
47054;BME280;32811;52.382;5.270;2023-07-31T03:32:57;100838.38;;;15.83;100.00
47054;BME280;32811;52.382;5.270;2023-07-31T03:35:24;100831.53;;;15.79;100.00
47054;BME280;32811;52.382;5.270;2023-07-31T03:37:50;100847.84;;;15.88;100.00
47054;BME280;32811;52.382;5.270;2023-07-31T03:40:17;100833.16;;;15.84;100.00
47054;BME280;32811;52.382;5.270;2023-07-31T03:42:44;100840.03;;;15.88;100.00
47054;BME280;32811;52.382;5.270;2023-07-31T03:45:10;100832.25;;;15.87;100.00
47054;BME280;32811;52.382;5.270;2023-07-31T03:47:37;100835.75;;;15.86;100.00
47054;BME280;32811;52.382;5.270;2023-07-31T03:50:04;100831.38;;;15.88;100.00
47054;BME280;32811;52.382;5.270;2023-07-31T03:52:31;100825.41;;;15.81;100.00
47054;BME280;32811;52.382;5.270;2023-07-31T03:54:57;100830.47;;;15.90;100.00
47054;BME280;32811;52.382;5.270;2023-07-31T03:57:24;100820.97;;;15.86;100.00
47054;BME280;32811;52.382;5.270;2023-07-31T03:59:51;100826.94;;;15.91;100.00
47054;BME280;32811;52.382;5.270;2023-07-31T04:02:17;100812.41;;;15.81;100.00
47054;BME280;32811;52.382;5.270;2023-07-31T04:04:45;100818.44;;;15.83;100.00
47054;BME280;32811;52.382;5.270;2023-07-31T04:07:12;100816.72;;;15.82;100.00
47054;BME280;32811;52.382;5.270;2023-07-31T04:09:38;100810.63;;;15.83;100.00
47054;BME280;32811;52.382;5.270;2023-07-31T04:12:05;100803.66;;;15.85;100.00
47054;BME280;32811;52.382;5.270;2023-07-31T04:14:32;100807.13;;;15.84;100.00
47054;BME280;32811;52.382;5.270;2023-07-31T04:16:58;100795.09;;;15.79;100.00
47054;BME280;32811;52.382;5.270;2023-07-31T04:19:25;100789.75;;;15.85;100.00
47054;BME280;32811;52.382;5.270;2023-07-31T04:21:51;100784.72;;;15.77;100.00
47054;BME280;32811;52.382;5.270;2023-07-31T04:24:18;100790.69;;;15.82;100.00
47054;BME280;32811;52.382;5.270;2023-07-31T04:26:51;100793.25;;;15.85;100.00
47054;BME280;32811;52.382;5.270;2023-07-31T04:29:18;100796.88;;;15.76;100.00
47054;BME280;32811;52.382;5.270;2023-07-31T04:31:45;100796.88;;;15.75;100.00
47054;BME280;32811;52.382;5.270;2023-07-31T04:34:12;100792.59;;;15.74;100.00
47054;BME280;32811;52.382;5.270;2023-07-31T04:36:39;100801.19;;;15.76;100.00
47054;BME280;32811;52.382;5.270;2023-07-31T04:39:06;100814.09;;;15.84;100.00
47054;BME280;32811;52.382;5.270;2023-07-31T04:41:32;100789.94;;;15.75;100.00
47054;BME280;32811;52.382;5.270;2023-07-31T04:43:59;100796.81;;;15.80;100.00
47054;BME280;32811;52.382;5.270;2023-07-31T04:46:26;100793.34;;;15.79;100.00
47054;BME280;32811;52.382;5.270;2023-07-31T04:48:52;100783.78;;;15.80;100.00
47054;BME280;32811;52.382;5.270;2023-07-31T04:51:19;100783.78;;;15.80;100.00
47054;BME280;32811;52.382;5.270;2023-07-31T04:53:47;100771.63;;;15.80;100.00
47054;BME280;32811;52.382;5.270;2023-07-31T04:56:14;100769.84;;;15.82;100.00
47054;BME280;32811;52.382;5.270;2023-07-31T04:58:41;100776.06;;;15.75;100.00
47054;BME280;32811;52.382;5.270;2023-07-31T05:01:08;100770.72;;;15.83;100.00
47054;BME280;32811;52.382;5.270;2023-07-31T05:03:35;100767.25;;;15.82;100.00
47054;BME280;32811;52.382;5.270;2023-07-31T05:06:02;100771.63;;;15.82;100.00
47054;BME280;32811;52.382;5.270;2023-07-31T05:08:28;100763.81;;;15.80;100.00
47054;BME280;32811;52.382;5.270;2023-07-31T05:10:55;100761.22;;;15.80;100.00
47054;BME280;32811;52.382;5.270;2023-07-31T05:13:21;100771.53;;;15.86;100.00
47054;BME280;32811;52.382;5.270;2023-07-31T05:15:48;100760.38;;;15.80;100.00
47054;BME280;32811;52.382;5.270;2023-07-31T05:18:16;100773.38;;;15.81;100.00
47054;BME280;32811;52.382;5.270;2023-07-31T05:20:42;100768.19;;;15.78;100.00
47054;BME280;32811;52.382;5.270;2023-07-31T05:23:09;100747.59;;;15.66;100.00
47054;BME280;32811;52.382;5.270;2023-07-31T05:25:35;100751.84;;;15.71;100.00
47054;BME280;32811;52.382;5.270;2023-07-31T05:28:02;100761.22;;;15.80;100.00
47054;BME280;32811;52.382;5.270;2023-07-31T05:30:32;100757.84;;;15.76;100.00
47054;BME280;32811;52.382;5.270;2023-07-31T05:32:59;100733.66;;;15.67;100.00
47054;BME280;32811;52.382;5.270;2023-07-31T05:35:25;100755.31;;;15.70;100.00
47054;BME280;32811;52.382;5.270;2023-07-31T05:37:52;100739.78;;;15.66;100.00
47054;BME280;32811;52.382;5.270;2023-07-31T05:40:18;100740.72;;;15.62;100.00
47054;BME280;32811;52.382;5.270;2023-07-31T05:42:45;100733.75;;;15.62;100.00
47054;BME280;32811;52.382;5.270;2023-07-31T05:45:12;100734.66;;;15.61;100.00
47054;BME280;32811;52.382;5.270;2023-07-31T05:47:39;100726.88;;;15.58;100.00
47054;BME280;32811;52.382;5.270;2023-07-31T05:50:06;100736.34;;;15.64;100.00
47054;BME280;32811;52.382;5.270;2023-07-31T05:52:33;100735.50;;;15.62;100.00
47054;BME280;32811;52.382;5.270;2023-07-31T05:55:00;100723.25;;;15.67;100.00
47054;BME280;32811;52.382;5.270;2023-07-31T05:57:27;100718.88;;;15.70;100.00
47054;BME280;32811;52.382;5.270;2023-07-31T05:59:54;100706.78;;;15.68;100.00
47054;BME280;32811;52.382;5.270;2023-07-31T06:02:21;100717.13;;;15.69;100.00
47054;BME280;32811;52.382;5.270;2023-07-31T06:04:47;100708.56;;;15.64;100.00
47054;BME280;32811;52.382;5.270;2023-07-31T06:07:14;100716.34;;;15.66;100.00
47054;BME280;32811;52.382;5.270;2023-07-31T06:09:41;100721.50;;;15.72;100.00
47054;BME280;32811;52.382;5.270;2023-07-31T06:12:07;100711.16;;;15.66;100.00
47054;BME280;32811;52.382;5.270;2023-07-31T06:14:35;100708.59;;;15.63;100.00
47054;BME280;32811;52.382;5.270;2023-07-31T06:17:01;100698.34;;;15.55;100.00
47054;BME280;32811;52.382;5.270;2023-07-31T06:19:28;100702.59;;;15.61;100.00
47054;BME280;32811;52.382;5.270;2023-07-31T06:21:54;100702.59;;;15.61;100.00
47054;BME280;32811;52.382;5.270;2023-07-31T06:24:21;100710.22;;;15.68;100.00
47054;BME280;32811;52.382;5.270;2023-07-31T06:26:48;100705.19;;;15.61;100.00
47054;BME280;32811;52.382;5.270;2023-07-31T06:29:15;100694.84;;;15.56;100.00
47054;BME280;32811;52.382;5.270;2023-07-31T06:31:41;100698.16;;;15.66;100.00
47054;BME280;32811;52.382;5.270;2023-07-31T06:34:08;100688.75;;;15.59;100.00
47054;BME280;32811;52.382;5.270;2023-07-31T06:36:35;100689.44;;;15.67;100.00
47054;BME280;32811;52.382;5.270;2023-07-31T06:39:01;100681.63;;;15.68;100.00
47054;BME280;32811;52.382;5.270;2023-07-31T06:41:28;100679.72;;;15.78;100.00
47054;BME280;32811;52.382;5.270;2023-07-31T06:43:55;100668.44;;;15.77;100.00
47054;BME280;32811;52.382;5.270;2023-07-31T06:46:21;100675.16;;;15.89;100.00
47054;BME280;32811;52.382;5.270;2023-07-31T06:48:48;100663.78;;;15.95;100.00
47054;BME280;32811;52.382;5.270;2023-07-31T06:51:15;100671.47;;;16.00;100.00
47054;BME280;32811;52.382;5.270;2023-07-31T06:53:42;100675.78;;;16.01;100.00
47054;BME280;32811;52.382;5.270;2023-07-31T06:56:11;100661.06;;;16.00;100.00
47054;BME280;32811;52.382;5.270;2023-07-31T06:58:38;100666.09;;;16.07;100.00
47054;BME280;32811;52.382;5.270;2023-07-31T07:01:05;100661.97;;;15.98;100.00
47054;BME280;32811;52.382;5.270;2023-07-31T07:03:32;100667.19;;;15.98;100.00
47054;BME280;32811;52.382;5.270;2023-07-31T07:05:59;100648.13;;;15.96;100.00
47054;BME280;32811;52.382;5.270;2023-07-31T07:08:25;100669.47;;;16.12;100.00
47054;BME280;32811;52.382;5.270;2023-07-31T07:10:53;100653.91;;;16.09;100.00
47054;BME280;32811;52.382;5.270;2023-07-31T07:13:21;100662.25;;;16.25;100.00
47054;BME280;32811;52.382;5.270;2023-07-31T07:15:48;100657.19;;;16.19;100.00
47054;BME280;32811;52.382;5.270;2023-07-31T07:18:15;100661.28;;;16.29;100.00
47054;BME280;32811;52.382;5.270;2023-07-31T07:20:50;100654.50;;;16.22;100.00
47054;BME280;32811;52.382;5.270;2023-07-31T07:23:17;100650.13;;;16.24;100.00
47054;BME280;32811;52.382;5.270;2023-07-31T07:25:45;100641.38;;;16.27;100.00
47054;BME280;32811;52.382;5.270;2023-07-31T07:28:12;100657.72;;;16.33;100.00
47054;BME280;32811;52.382;5.270;2023-07-31T07:30:39;100656.03;;;16.32;100.00
47054;BME280;32811;52.382;5.270;2023-07-31T07:33:05;100657.47;;;16.46;100.00
47054;BME280;32811;52.382;5.270;2023-07-31T07:35:34;100644.56;;;16.41;100.00
47054;BME280;32811;52.382;5.270;2023-07-31T07:38:02;100647.09;;;16.43;100.00
47054;BME280;32811;52.382;5.270;2023-07-31T07:40:29;100642.78;;;16.42;100.00
47054;BME280;32811;52.382;5.270;2023-07-31T07:42:55;100647.81;;;16.49;100.00
47054;BME280;32811;52.382;5.270;2023-07-31T07:45:22;100640.09;;;16.46;100.00
47054;BME280;32811;52.382;5.270;2023-07-31T07:47:49;100646.97;;;16.49;100.00
47054;BME280;32811;52.382;5.270;2023-07-31T07:50:15;100643.53;;;16.47;100.00
47054;BME280;32811;52.382;5.270;2023-07-31T07:52:42;100651.91;;;16.61;100.00
47054;BME280;32811;52.382;5.270;2023-07-31T07:55:08;100647.34;;;16.69;100.00
47054;BME280;32811;52.382;5.270;2023-07-31T07:57:35;100638.38;;;16.83;100.00
47054;BME280;32811;52.382;5.270;2023-07-31T08:00:02;100639.91;;;16.90;100.00
47054;BME280;32811;52.382;5.270;2023-07-31T08:02:29;100636.31;;;16.95;100.00
47054;BME280;32811;52.382;5.270;2023-07-31T08:04:55;100621.66;;;16.91;100.00
47054;BME280;32811;52.382;5.270;2023-07-31T08:07:22;100626.75;;;16.96;100.00
47054;BME280;32811;52.382;5.270;2023-07-31T08:09:49;100631.81;;;17.02;100.00
47054;BME280;32811;52.382;5.270;2023-07-31T08:12:15;100612.75;;;16.98;100.00
47054;BME280;32811;52.382;5.270;2023-07-31T08:14:42;100626.19;;;17.17;100.00
47054;BME280;32811;52.382;5.270;2023-07-31T08:17:08;100612.41;;;17.12;100.00
47054;BME280;32811;52.382;5.270;2023-07-31T08:19:35;100622.63;;;17.21;100.00
47054;BME280;32811;52.382;5.270;2023-07-31T08:22:02;100604.41;;;17.18;100.00
47054;BME280;32811;52.382;5.270;2023-07-31T08:24:29;100608.50;;;17.29;100.00
47054;BME280;32811;52.382;5.270;2023-07-31T08:26:55;100600.72;;;17.27;100.00
47054;BME280;32811;52.382;5.270;2023-07-31T08:29:22;100615.34;;;17.33;100.00
47054;BME280;32811;52.382;5.270;2023-07-31T08:31:48;100611.69;;;17.40;100.00
47054;BME280;32811;52.382;5.270;2023-07-31T08:34:15;100603.00;;;17.39;100.00
47054;BME280;32811;52.382;5.270;2023-07-31T08:36:42;100606.47;;;17.40;100.00
47054;BME280;32811;52.382;5.270;2023-07-31T08:39:08;100607.91;;;17.50;100.00
47054;BME280;32811;52.382;5.270;2023-07-31T08:41:38;100597.72;;;17.41;100.00
47054;BME280;32811;52.382;5.270;2023-07-31T08:44:07;100605.38;;;17.47;100.00
47054;BME280;32811;52.382;5.270;2023-07-31T08:46:34;100610.44;;;17.53;100.00
47054;BME280;32811;52.382;5.270;2023-07-31T08:49:04;100596.47;;;17.54;100.00
47054;BME280;32811;52.382;5.270;2023-07-31T08:51:34;100607.56;;;17.62;100.00
47054;BME280;32811;52.382;5.270;2023-07-31T08:54:01;100612.41;;;17.75;100.00
47054;BME280;32811;52.382;5.270;2023-07-31T08:56:32;100599.19;;;17.81;100.00
47054;BME280;32811;52.382;5.270;2023-07-31T08:59:02;100606.34;;;17.74;100.00
47054;BME280;32811;52.382;5.270;2023-07-31T09:01:30;100606.59;;;17.67;100.00
47054;BME280;32811;52.382;5.270;2023-07-31T09:03:59;100611.53;;;17.76;100.00
47054;BME280;32811;52.382;5.270;2023-07-31T09:06:28;100609.69;;;17.79;100.00
47054;BME280;32811;52.382;5.270;2023-07-31T09:08:56;100612.34;;;17.78;100.00
47054;BME280;32811;52.382;5.270;2023-07-31T09:11:24;100615.91;;;17.75;100.00
47054;BME280;32811;52.382;5.270;2023-07-31T09:13:52;100598.47;;;17.76;100.00
47054;BME280;32811;52.382;5.270;2023-07-31T09:16:27;100592.56;;;17.69;100.00
47054;BME280;32811;52.382;5.270;2023-07-31T09:18:57;100603.59;;;17.79;100.00
47054;BME280;32811;52.382;5.270;2023-07-31T09:21:24;100589.66;;;17.80;100.00
47054;BME280;32811;52.382;5.270;2023-07-31T09:23:52;100592.31;;;17.78;100.00
47054;BME280;32811;52.382;5.270;2023-07-31T09:28:58;100604.22;;;17.89;100.00
47054;BME280;32811;52.382;5.270;2023-07-31T09:31:41;100594.75;;;17.86;100.00
47054;BME280;32811;52.382;5.270;2023-07-31T09:34:09;100586.56;;;17.97;100.00
47054;BME280;32811;52.382;5.270;2023-07-31T09:36:47;100590.97;;;17.95;100.00
47054;BME280;32811;52.382;5.270;2023-07-31T09:39:14;100587.63;;;17.91;100.00
47054;BME280;32811;52.382;5.270;2023-07-31T09:41:55;100597.22;;;17.91;100.00
47054;BME280;32811;52.382;5.270;2023-07-31T09:44:37;100577.38;;;17.83;100.00
47054;BME280;32811;52.382;5.270;2023-07-31T09:47:05;100591.34;;;17.81;100.00
47054;BME280;32811;52.382;5.270;2023-07-31T09:49:31;100587.94;;;17.79;100.00
47054;BME280;32811;52.382;5.270;2023-07-31T09:51:58;100585.00;;;17.91;100.00
47054;BME280;32811;52.382;5.270;2023-07-31T09:54:25;100589.00;;;18.03;100.00
47054;BME280;32811;52.382;5.270;2023-07-31T09:56:52;100592.78;;;18.21;100.00
47054;BME280;32811;52.382;5.270;2023-07-31T09:59:19;100588.94;;;18.33;100.00
47054;BME280;32811;52.382;5.270;2023-07-31T10:01:50;100576.59;;;18.38;100.00
47054;BME280;32811;52.382;5.270;2023-07-31T10:04:20;100577.78;;;18.54;100.00
47054;BME280;32811;52.382;5.270;2023-07-31T10:06:53;100556.66;;;18.35;100.00
47054;BME280;32811;52.382;5.270;2023-07-31T10:09:21;100567.53;;;18.48;100.00
47054;BME280;32811;52.382;5.270;2023-07-31T10:11:56;100580.41;;;18.54;100.00
47054;BME280;32811;52.382;5.270;2023-07-31T10:14:26;100575.06;;;18.57;100.00
47054;BME280;32811;52.382;5.270;2023-07-31T10:16:54;100567.34;;;18.54;100.00
47054;BME280;32811;52.382;5.270;2023-07-31T10:19:21;100584.94;;;18.49;100.00
47054;BME280;32811;52.382;5.270;2023-07-31T10:21:48;100581.72;;;18.41;100.00
47054;BME280;32811;52.382;5.270;2023-07-31T10:24:16;100574.22;;;18.30;100.00
47054;BME280;32811;52.382;5.270;2023-07-31T10:26:45;100575.38;;;18.48;100.00
47054;BME280;32811;52.382;5.270;2023-07-31T10:29:12;100560.97;;;18.63;100.00
47054;BME280;32811;52.382;5.270;2023-07-31T10:31:40;100558.53;;;18.57;100.00
47054;BME280;32811;52.382;5.270;2023-07-31T10:34:07;100567.19;;;18.59;100.00
47054;BME280;32811;52.382;5.270;2023-07-31T10:36:34;100557.50;;;18.62;100.00
47054;BME280;32811;52.382;5.270;2023-07-31T10:39:03;100555.56;;;18.67;100.00
47054;BME280;32811;52.382;5.270;2023-07-31T10:41:30;100566.50;;;18.80;100.00
47054;BME280;32811;52.382;5.270;2023-07-31T10:44:01;100546.75;;;18.70;100.00
47054;BME280;32811;52.382;5.270;2023-07-31T10:46:28;100577.13;;;18.74;100.00
47054;BME280;32811;52.382;5.270;2023-07-31T10:49:00;100564.22;;;18.70;100.00
47054;BME280;32811;52.382;5.270;2023-07-31T10:51:34;100579.41;;;18.58;100.00
47054;BME280;32811;52.382;5.270;2023-07-31T10:54:15;100585.03;;;18.46;100.00
47054;BME280;32811;52.382;5.270;2023-07-31T10:56:45;100585.97;;;18.43;100.00
47054;BME280;32811;52.382;5.270;2023-07-31T10:59:13;100555.84;;;18.33;100.00
47054;BME280;32811;52.382;5.270;2023-07-31T11:01:51;100582.41;;;18.46;100.00
47054;BME280;32811;52.382;5.270;2023-07-31T11:04:23;100578.25;;;18.40;100.00
47054;BME280;32811;52.382;5.270;2023-07-31T11:07:01;100580.94;;;18.37;100.00
47054;BME280;32811;52.382;5.270;2023-07-31T11:09:30;100574.19;;;18.58;100.00
47054;BME280;32811;52.382;5.270;2023-07-31T11:11:59;100566.53;;;18.52;100.00
47054;BME280;32811;52.382;5.270;2023-07-31T11:14:26;100568.09;;;18.58;100.00
47054;BME280;32811;52.382;5.270;2023-07-31T11:16:53;100582.03;;;18.85;100.00
47054;BME280;32811;52.382;5.270;2023-07-31T11:19:25;100573.13;;;18.91;100.00
47054;BME280;32811;52.382;5.270;2023-07-31T11:21:52;100577.44;;;18.92;100.00
47054;BME280;32811;52.382;5.270;2023-07-31T11:24:19;100569.13;;;18.80;100.00
47054;BME280;32811;52.382;5.270;2023-07-31T11:26:52;100569.16;;;18.79;100.00
47054;BME280;32811;52.382;5.270;2023-07-31T11:29:20;100563.25;;;18.99;100.00
47054;BME280;32811;52.382;5.270;2023-07-31T11:31:47;100565.91;;;19.22;100.00
47054;BME280;32811;52.382;5.270;2023-07-31T11:34:15;100549.31;;;19.47;100.00
47054;BME280;32811;52.382;5.270;2023-07-31T11:36:55;100552.16;;;19.41;100.00
47054;BME280;32811;52.382;5.270;2023-07-31T11:39:22;100542.91;;;19.31;100.00
47054;BME280;32811;52.382;5.270;2023-07-31T11:41:48;100554.47;;;19.25;100.00
47054;BME280;32811;52.382;5.270;2023-07-31T11:44:15;100543.03;;;19.27;100.00
47054;BME280;32811;52.382;5.270;2023-07-31T11:46:56;100545.84;;;19.23;100.00
47054;BME280;32811;52.382;5.270;2023-07-31T11:49:23;100548.81;;;19.12;100.00
47054;BME280;32811;52.382;5.270;2023-07-31T11:51:50;100540.63;;;18.98;100.00
47054;BME280;32811;52.382;5.270;2023-07-31T11:54:16;100549.69;;;18.87;100.00
47054;BME280;32811;52.382;5.270;2023-07-31T11:56:44;100543.38;;;18.93;100.00
47054;BME280;32811;52.382;5.270;2023-07-31T11:59:11;100538.38;;;18.87;100.00
47054;BME280;32811;52.382;5.270;2023-07-31T12:01:39;100536.94;;;18.78;100.00
47054;BME280;32811;52.382;5.270;2023-07-31T12:04:06;100537.66;;;18.82;100.00
47054;BME280;32811;52.382;5.270;2023-07-31T12:06:36;100560.03;;;18.91;100.00
47054;BME280;32811;52.382;5.270;2023-07-31T12:09:04;100544.78;;;18.78;100.00
47054;BME280;32811;52.382;5.270;2023-07-31T12:11:42;100560.16;;;18.87;100.00
47054;BME280;32811;52.382;5.270;2023-07-31T12:14:22;100563.81;;;18.82;100.00
47054;BME280;32811;52.382;5.270;2023-07-31T12:16:57;100567.31;;;18.82;100.00
47054;BME280;32811;52.382;5.270;2023-07-31T12:19:25;100565.03;;;18.72;100.00
47054;BME280;32811;52.382;5.270;2023-07-31T12:21:56;100558.78;;;18.76;100.00
47054;BME280;32811;52.382;5.270;2023-07-31T12:24:26;100558.59;;;18.82;100.00
47054;BME280;32811;52.382;5.270;2023-07-31T12:26:52;100542.16;;;18.78;100.00
47054;BME280;32811;52.382;5.270;2023-07-31T12:29:21;100543.97;;;19.01;100.00
47054;BME280;32811;52.382;5.270;2023-07-31T12:31:47;100537.13;;;19.22;100.00
47054;BME280;32811;52.382;5.270;2023-07-31T12:34:18;100527.34;;;19.27;100.00
47054;BME280;32811;52.382;5.270;2023-07-31T12:36:47;100515.09;;;19.28;100.00
47054;BME280;32811;52.382;5.270;2023-07-31T12:39:17;100518.56;;;19.28;100.00
47054;BME280;32811;52.382;5.270;2023-07-31T12:41:43;100501.88;;;19.09;100.00
47054;BME280;32811;52.382;5.270;2023-07-31T12:44:10;100526.94;;;19.15;100.00
47054;BME280;32811;52.382;5.270;2023-07-31T12:46:37;100528.25;;;19.03;100.00
47054;BME280;32811;52.382;5.270;2023-07-31T12:49:04;100521.34;;;19.00;100.00
47054;BME280;32811;52.382;5.270;2023-07-31T12:51:31;100508.06;;;18.81;100.00
47054;BME280;32811;52.382;5.270;2023-07-31T12:53:57;100513.41;;;18.77;100.00